Time;durP1;ratioP1;P1;durP2;ratioP2;P2;SDS_P1;SDS_P2;PMS_P1;PMS_P2;Temp;Humidity;BMP_temperature;BMP_pressure;BME280_temperature;BME280_humidity;BME280_pressure;Samples;Min_cycle;Max_cycle;Signal;HPM_P1;HPM_P2
2022/03/27 00:00:51;;;;;;;7.43;3.47;;;;;;;;;;6263669;22;20094;-85
2022/03/27 00:03:17;;;;;;;8.68;3.45;;;;;;;;;;6267773;22;20022;-85
2022/03/27 00:05:43;;;;;;;4.65;2.88;;;;;;;;;;6265326;22;20026;-85
2022/03/27 00:08:11;;;;;;;8.00;3.30;;;;;;;;;;6266577;22;20142;-85
2022/03/27 00:13:23;;;;;;;4.82;2.83;;;;;;;;;;6265485;22;20070;-86
2022/03/27 00:15:49;;;;;;;5.45;2.95;;;;;;;;;;6237379;22;20031;-84
2022/03/27 00:18:15;;;;;;;4.03;3.03;;;;;;;;;;6265715;22;20119;-85
2022/03/27 00:20:41;;;;;;;5.22;3.58;;;;;;;;;;6264351;22;20015;-85
2022/03/27 00:23:07;;;;;;;5.35;2.90;;;;;;;;;;6264554;22;20347;-85
2022/03/27 00:25:33;;;;;;;5.25;3.30;;;;;;;;;;6263367;22;20030;-83
2022/03/27 00:27:59;;;;;;;7.15;3.33;;;;;;;;;;6264409;22;20026;-83
2022/03/27 00:30:26;;;;;;;4.57;3.35;;;;;;;;;;6265180;22;20034;-84
2022/03/27 00:32:52;;;;;;;4.90;3.58;;;;;;;;;;6186873;22;20094;-84
2022/03/27 00:35:18;;;;;;;5.15;3.13;;;;;;;;;;6213696;22;20023;-84
2022/03/27 00:37:51;;;;;;;6.15;3.08;;;;;;;;;;6263543;22;20070;-86
2022/03/27 00:43:27;;;;;;;5.13;2.95;;;;;;;;;;6170601;23;20104;-85
2022/03/27 00:45:53;;;;;;;3.03;2.72;;;;;;;;;;6145979;23;20790;-84
2022/03/27 00:48:21;;;;;;;4.03;2.80;;;;;;;;;;6202026;22;20020;-82
2022/03/27 00:50:51;;;;;;;4.32;2.63;;;;;;;;;;6265283;22;20020;-83
2022/03/27 00:53:18;;;;;;;4.05;2.60;;;;;;;;;;6265250;22;20016;-86
2022/03/27 00:55:46;;;;;;;2.83;2.50;;;;;;;;;;6264087;22;20030;-86
2022/03/27 00:58:24;;;;;;;4.28;2.58;;;;;;;;;;6239805;22;20096;-85
2022/03/27 01:00:56;;;;;;;4.72;2.75;;;;;;;;;;6263668;22;20015;-86
2022/03/27 01:03:24;;;;;;;5.45;2.67;;;;;;;;;;6238094;22;20020;-84
2022/03/27 01:05:51;;;;;;;4.88;2.70;;;;;;;;;;6263874;22;20055;-86
2022/03/27 01:09:35;;;;;;;9.35;3.05;;;;;;;;;;6268796;22;20479;-86
2022/03/27 01:11:30;;;;;;;3.60;2.75;;;;;;;;;;6237968;22;20099;-87
2022/03/27 01:13:57;;;;;;;6.75;3.88;;;;;;;;;;6262294;22;20019;-83
2022/03/27 01:16:42;;;;;;;5.28;2.88;;;;;;;;;;6291353;22;20016;-86
2022/03/27 01:19:19;;;;;;;5.30;2.88;;;;;;;;;;6285430;22;20098;-86
2022/03/27 01:22:07;;;;;;;5.35;2.83;;;;;;;;;;6290574;22;20028;-86
2022/03/27 01:24:34;;;;;;;3.67;2.22;;;;;;;;;;6214246;22;20015;-86
2022/03/27 01:32:53;;;;;;;3.15;2.85;;;;;;;;;;6227943;23;20031;-86
2022/03/27 01:35:20;;;;;;;2.75;2.55;;;;;;;;;;6210099;23;20345;-84
2022/03/27 01:37:49;;;;;;;3.10;2.80;;;;;;;;;;6239189;23;20019;-88
2022/03/27 01:40:16;;;;;;;5.45;3.17;;;;;;;;;;6244306;23;20020;-86
2022/03/27 01:42:42;;;;;;;5.68;2.85;;;;;;;;;;6218409;23;20339;-84
2022/03/27 01:45:09;;;;;;;3.42;3.10;;;;;;;;;;6214006;23;20016;-84
2022/03/27 01:47:36;;;;;;;4.75;3.08;;;;;;;;;;6213451;23;20020;-84
2022/03/27 01:50:03;;;;;;;7.10;3.42;;;;;;;;;;6215666;23;20020;-84
2022/03/27 01:52:29;;;;;;;6.75;3.28;;;;;;;;;;6211865;23;20434;-84
2022/03/27 01:54:55;;;;;;;32.88;4.10;;;;;;;;;;6240724;23;20052;-84
2022/03/27 01:57:28;;;;;;;7.07;3.63;;;;;;;;;;6195861;23;20024;-84
2022/03/27 02:00:04;;;;;;;3.80;3.25;;;;;;;;;;6242999;23;20020;-84
2022/03/27 02:02:30;;;;;;;8.40;3.80;;;;;;;;;;6245584;23;20020;-83
2022/03/27 02:04:56;;;;;;;9.10;3.10;;;;;;;;;;6248815;23;20074;-84
2022/03/27 02:07:22;;;;;;;7.10;3.80;;;;;;;;;;6240381;23;20107;-83
2022/03/27 02:09:49;;;;;;;43.70;3.90;;;;;;;;;;6238069;23;20039;-84
2022/03/27 02:12:15;;;;;;;18.45;4.35;;;;;;;;;;6238903;23;20031;-83
2022/03/27 02:14:41;;;;;;;37.70;4.65;;;;;;;;;;6259975;22;20039;-84
2022/03/27 02:17:08;;;;;;;62.63;4.43;;;;;;;;;;6214853;22;20456;-84
2022/03/27 02:19:35;;;;;;;21.15;4.20;;;;;;;;;;6269037;22;20026;-83
2022/03/27 02:22:02;;;;;;;25.15;4.53;;;;;;;;;;6267529;22;20020;-83
2022/03/27 02:24:28;;;;;;;39.17;8.43;;;;;;;;;;6242721;22;20031;-83
2022/03/27 02:26:54;;;;;;;27.60;9.55;;;;;;;;;;6216062;22;20823;-84
2022/03/27 02:29:20;;;;;;;22.23;8.00;;;;;;;;;;6213500;22;20015;-83
2022/03/27 02:31:46;;;;;;;14.65;7.50;;;;;;;;;;6267985;22;20031;-84
2022/03/27 02:34:12;;;;;;;21.92;8.02;;;;;;;;;;6267098;22;20071;-84
2022/03/27 02:36:39;;;;;;;10.40;6.65;;;;;;;;;;6240123;22;20024;-84
2022/03/27 02:39:05;;;;;;;11.43;6.35;;;;;;;;;;6269220;22;20024;-86
2022/03/27 02:41:31;;;;;;;12.30;5.22;;;;;;;;;;6267537;22;20783;-86
2022/03/27 02:43:58;;;;;;;5.75;4.10;;;;;;;;;;6266697;22;20055;-86
2022/03/27 02:46:31;;;;;;;7.85;3.97;;;;;;;;;;6268780;22;20023;-87
2022/03/27 02:49:03;;;;;;;5.70;3.92;;;;;;;;;;6265963;22;20019;-86
2022/03/27 02:51:29;;;;;;;8.38;4.55;;;;;;;;;;6267478;22;20018;-87
2022/03/27 02:53:55;;;;;;;13.82;4.25;;;;;;;;;;6239333;22;20024;-87
2022/03/27 02:56:21;;;;;;;34.88;4.63;;;;;;;;;;6241633;22;20026;-87
2022/03/27 02:58:47;;;;;;;19.30;3.90;;;;;;;;;;6266914;22;20116;-85
2022/03/27 03:01:13;;;;;;;11.48;4.43;;;;;;;;;;6265799;22;20012;-86
2022/03/27 03:03:42;;;;;;;24.83;5.05;;;;;;;;;;6267536;22;20015;-87
2022/03/27 03:06:09;;;;;;;9.77;4.43;;;;;;;;;;6266566;22;20030;-85
2022/03/27 03:08:39;;;;;;;13.40;4.50;;;;;;;;;;6240353;22;20012;-86
2022/03/27 03:11:05;;;;;;;11.55;5.00;;;;;;;;;;6238978;22;20065;-86
2022/03/27 03:13:32;;;;;;;18.98;5.47;;;;;;;;;;6267815;22;20586;-87
2022/03/27 03:16:01;;;;;;;15.77;4.78;;;;;;;;;;6265941;22;20015;-86
2022/03/27 03:18:28;;;;;;;16.30;3.97;;;;;;;;;;6265125;22;20070;-87
2022/03/27 03:21:00;;;;;;;14.93;4.32;;;;;;;;;;6264361;22;20027;-86
2022/03/27 03:23:26;;;;;;;8.10;3.28;;;;;;;;;;6264760;22;20020;-87
2022/03/27 03:25:52;;;;;;;8.25;4.68;;;;;;;;;;6212667;22;20023;-87
2022/03/27 03:28:18;;;;;;;5.50;3.50;;;;;;;;;;6237450;22;20094;-86
2022/03/27 03:30:44;;;;;;;8.15;3.97;;;;;;;;;;6237576;22;20011;-87
2022/03/27 03:33:20;;;;;;;6.90;4.10;;;;;;;;;;6237667;22;20016;-85
2022/03/27 03:35:46;;;;;;;7.97;3.70;;;;;;;;;;6264862;22;20104;-84
2022/03/27 03:38:12;;;;;;;7.68;3.17;;;;;;;;;;6238202;22;20024;-84
2022/03/27 03:40:40;;;;;;;6.30;3.70;;;;;;;;;;6237433;22;20721;-84
2022/03/27 03:43:06;;;;;;;9.43;4.72;;;;;;;;;;6264037;22;20027;-84
2022/03/27 03:45:32;;;;;;;6.57;2.95;;;;;;;;;;6237984;22;20464;-84
2022/03/27 03:47:59;;;;;;;4.70;3.20;;;;;;;;;;6264934;22;20015;-87
2022/03/27 03:50:26;;;;;;;4.78;2.72;;;;;;;;;;6251559;22;20020;-85
2022/03/27 03:52:52;;;;;;;6.00;2.85;;;;;;;;;;6235360;23;20478;-84
2022/03/27 03:55:18;;;;;;;6.05;3.00;;;;;;;;;;6209785;23;20018;-85
2022/03/27 03:57:51;;;;;;;4.78;2.70;;;;;;;;;;6218233;23;20020;-85
2022/03/27 04:00:17;;;;;;;9.82;3.13;;;;;;;;;;6241658;23;20318;-83
2022/03/27 04:02:43;;;;;;;5.57;2.67;;;;;;;;;;6208956;23;20024;-85
2022/03/27 04:05:15;;;;;;;12.00;2.95;;;;;;;;;;6235686;23;20071;-86
2022/03/27 04:07:44;;;;;;;6.38;3.00;;;;;;;;;;6207839;23;20563;-85
2022/03/27 04:10:11;;;;;;;7.80;2.70;;;;;;;;;;6233439;23;20016;-85
2022/03/27 04:12:37;;;;;;;11.55;3.40;;;;;;;;;;6233460;23;20019;-85
2022/03/27 04:15:04;;;;;;;9.73;3.15;;;;;;;;;;6181523;23;20027;-85
2022/03/27 04:17:35;;;;;;;9.38;3.22;;;;;;;;;;6234722;23;20357;-85
2022/03/27 04:20:08;;;;;;;19.45;3.45;;;;;;;;;;6180484;23;20239;-85
2022/03/27 04:22:34;;;;;;;5.47;2.65;;;;;;;;;;6235929;23;20024;-84
2022/03/27 04:25:31;;;;;;;13.55;3.42;;;;;;;;;;6205844;23;20441;-85
2022/03/27 04:28:05;;;;;;;11.85;3.10;;;;;;;;;;6207926;23;20024;-85
2022/03/27 04:30:31;;;;;;;11.18;4.07;;;;;;;;;;6231243;23;20020;-86
2022/03/27 04:32:57;;;;;;;12.05;3.90;;;;;;;;;;6208463;23;20024;-86
2022/03/27 04:35:23;;;;;;;11.82;5.07;;;;;;;;;;6206971;23;20024;-86
2022/03/27 04:37:49;;;;;;;8.35;3.92;;;;;;;;;;6206433;23;20123;-85
2022/03/27 04:40:15;;;;;;;14.07;4.00;;;;;;;;;;6233040;23;20448;-85
2022/03/27 04:51:48;;;;;;;8.60;3.53;;;;;;;;;;6255277;22;20031;-85
2022/03/27 04:54:48;;;;;;;23.48;4.78;;;;;;;;;;6240271;22;20340;-85
2022/03/27 04:57:15;;;;;;;19.58;4.50;;;;;;;;;;6239217;22;20313;-85
2022/03/27 04:59:41;;;;;;;22.45;5.32;;;;;;;;;;6265883;22;20016;-84
2022/03/27 05:02:07;;;;;;;19.50;4.78;;;;;;;;;;6265297;22;20488;-86
2022/03/27 05:04:43;;;;;;;20.42;4.85;;;;;;;;;;6241074;22;20019;-86
2022/03/27 05:07:09;;;;;;;16.52;4.38;;;;;;;;;;6280665;22;20031;-85
2022/03/27 05:09:35;;;;;;;22.33;5.43;;;;;;;;;;6227297;22;20027;-85
2022/03/27 05:12:01;;;;;;;18.98;5.43;;;;;;;;;;6258015;22;20011;-85
2022/03/27 05:14:27;;;;;;;25.10;5.70;;;;;;;;;;6218928;22;20019;-84
2022/03/27 05:16:53;;;;;;;35.22;5.57;;;;;;;;;;6267609;22;20016;-84
2022/03/27 05:19:19;;;;;;;23.08;5.10;;;;;;;;;;6268573;22;20117;-85
2022/03/27 05:21:45;;;;;;;19.00;6.18;;;;;;;;;;6266953;22;20019;-86
2022/03/27 05:24:19;;;;;;;17.75;5.38;;;;;;;;;;6269297;22;20069;-85
2022/03/27 05:27:19;;;;;;;18.40;4.50;;;;;;;;;;6268777;22;20108;-85
2022/03/27 05:29:45;;;;;;;14.55;4.15;;;;;;;;;;6217473;22;20023;-84
2022/03/27 05:32:11;;;;;;;13.93;4.40;;;;;;;;;;6215175;22;20016;-84
2022/03/27 05:34:37;;;;;;;14.75;4.63;;;;;;;;;;6266574;22;20340;-84
2022/03/27 05:37:04;;;;;;;12.85;4.22;;;;;;;;;;6193500;22;20102;-84
2022/03/27 05:39:30;;;;;;;13.88;4.28;;;;;;;;;;6267439;22;20023;-84
2022/03/27 05:41:56;;;;;;;16.15;4.95;;;;;;;;;;6267911;22;20444;-85
2022/03/27 05:44:41;;;;;;;16.17;4.35;;;;;;;;;;6239604;22;20479;-85
2022/03/27 05:47:07;;;;;;;16.88;4.45;;;;;;;;;;6240882;22;20020;-85
2022/03/27 05:49:33;;;;;;;23.33;4.70;;;;;;;;;;6266303;22;20464;-84
2022/03/27 05:52:00;;;;;;;16.55;4.53;;;;;;;;;;6240515;22;20081;-86
2022/03/27 05:54:26;;;;;;;21.00;5.38;;;;;;;;;;6214219;22;20020;-84
2022/03/27 05:56:52;;;;;;;23.52;5.03;;;;;;;;;;6241326;22;20019;-85
2022/03/27 05:59:18;;;;;;;22.17;5.15;;;;;;;;;;6266030;22;20019;-85
2022/03/27 06:01:45;;;;;;;21.02;5.53;;;;;;;;;;6265833;22;20011;-85
2022/03/27 06:04:11;;;;;;;31.05;6.05;;;;;;;;;;6240990;22;20023;-85
2022/03/27 06:06:37;;;;;;;21.25;6.28;;;;;;;;;;6237420;22;20098;-84
2022/03/27 06:09:12;;;;;;;21.98;5.70;;;;;;;;;;6268110;22;20877;-86
2022/03/27 06:11:38;;;;;;;22.08;5.70;;;;;;;;;;6239321;22;20011;-85
2022/03/27 06:16:39;;;;;;;32.10;6.45;;;;;;;;;;6235813;22;20051;-85
2022/03/27 06:19:05;;;;;;;32.38;6.15;;;;;;;;;;6238919;23;20325;-85
2022/03/27 06:21:32;;;;;;;25.25;5.85;;;;;;;;;;6240436;22;20023;-84
2022/03/27 06:23:58;;;;;;;34.30;6.90;;;;;;;;;;6265663;22;20018;-85
2022/03/27 06:26:24;;;;;;;27.25;5.43;;;;;;;;;;6213065;22;20450;-85
2022/03/27 06:28:50;;;;;;;27.02;6.53;;;;;;;;;;6239175;22;20015;-85
2022/03/27 06:31:19;;;;;;;28.48;6.40;;;;;;;;;;6264234;22;20110;-84
2022/03/27 06:33:45;;;;;;;21.98;6.15;;;;;;;;;;6266976;22;20019;-85
2022/03/27 06:36:31;;;;;;;28.30;6.88;;;;;;;;;;6262229;22;20016;-86
2022/03/27 06:39:04;;;;;;;36.45;7.07;;;;;;;;;;6214129;22;20051;-86
2022/03/27 06:41:33;;;;;;;40.70;7.05;;;;;;;;;;6264766;22;20051;-85
2022/03/27 06:44:05;;;;;;;34.10;6.60;;;;;;;;;;6265542;22;20020;-85
2022/03/27 06:46:34;;;;;;;43.58;7.28;;;;;;;;;;6263795;22;20085;-84
2022/03/27 06:49:06;;;;;;;46.08;8.07;;;;;;;;;;6264863;22;20045;-83
2022/03/27 06:51:32;;;;;;;44.30;8.73;;;;;;;;;;6238355;22;20039;-85
2022/03/27 06:54:13;;;;;;;36.80;6.70;;;;;;;;;;6236965;22;20007;-85
2022/03/27 06:56:43;;;;;;;39.15;9.48;;;;;;;;;;6240690;22;20073;-83
2022/03/27 06:59:09;;;;;;;55.42;8.27;;;;;;;;;;6213173;22;20023;-85
2022/03/27 07:04:26;;;;;;;53.67;9.48;;;;;;;;;;6265768;22;20400;-86
2022/03/27 07:07:04;;;;;;;51.08;9.43;;;;;;;;;;6266976;22;20016;-85
2022/03/27 07:09:30;;;;;;;72.10;9.73;;;;;;;;;;6265733;22;20027;-85
2022/03/27 07:11:57;;;;;;;45.47;8.10;;;;;;;;;;6239997;22;20041;-85
2022/03/27 07:14:24;;;;;;;71.47;10.50;;;;;;;;;;6237499;22;20024;-85
2022/03/27 07:16:50;;;;;;;65.32;9.60;;;;;;;;;;6259393;22;20059;-85
2022/03/27 07:19:16;;;;;;;57.50;8.82;;;;;;;;;;6238158;22;20401;-85
2022/03/27 07:21:43;;;;;;;67.90;9.70;;;;;;;;;;6264358;22;20043;-85
2022/03/27 07:24:09;;;;;;;57.63;10.38;;;;;;;;;;6238612;22;20023;-86
2022/03/27 07:26:36;;;;;;;55.15;8.48;;;;;;;;;;6262901;22;20023;-86
2022/03/27 07:29:04;;;;;;;64.03;11.27;;;;;;;;;;6237996;22;20023;-86
2022/03/27 07:31:31;;;;;;;65.55;10.80;;;;;;;;;;6263128;22;20689;-86
2022/03/27 07:33:57;;;;;;;60.15;9.30;;;;;;;;;;6265441;22;20020;-86
2022/03/27 07:36:23;;;;;;;76.88;11.60;;;;;;;;;;6264646;22;20019;-86
2022/03/27 07:38:49;;;;;;;60.85;9.30;;;;;;;;;;6266161;22;20475;-86
2022/03/27 07:41:16;;;;;;;62.20;10.45;;;;;;;;;;6238295;22;20191;-85
2022/03/27 07:43:57;;;;;;;58.00;9.48;;;;;;;;;;6263709;22;20103;-87
2022/03/27 07:46:23;;;;;;;51.47;8.52;;;;;;;;;;6238571;22;20135;-86
2022/03/27 07:51:15;;;;;;;54.00;8.30;;;;;;;;;;6236197;22;20404;-86
2022/03/27 07:53:41;;;;;;;47.13;7.07;;;;;;;;;;6234468;23;20078;-85
2022/03/27 07:56:08;;;;;;;51.25;8.32;;;;;;;;;;6234526;23;20463;-84
2022/03/27 07:58:34;;;;;;;53.72;8.55;;;;;;;;;;6186588;22;20016;-84
2022/03/27 08:01:00;;;;;;;46.67;7.90;;;;;;;;;;6262417;22;20087;-86
2022/03/27 08:03:27;;;;;;;62.75;9.13;;;;;;;;;;6263625;22;20016;-86
2022/03/27 08:05:53;;;;;;;51.70;8.02;;;;;;;;;;6209736;22;20023;-85
2022/03/27 08:08:19;;;;;;;52.03;7.80;;;;;;;;;;6261930;22;20443;-86
2022/03/27 08:10:45;;;;;;;55.05;9.63;;;;;;;;;;6263374;22;20073;-85
2022/03/27 08:13:11;;;;;;;48.78;6.80;;;;;;;;;;6274552;22;20016;-84
2022/03/27 08:15:37;;;;;;;60.42;8.65;;;;;;;;;;6246068;22;20023;-85
2022/03/27 08:18:03;;;;;;;49.83;8.45;;;;;;;;;;6251811;22;20054;-85
2022/03/27 08:20:29;;;;;;;51.22;8.82;;;;;;;;;;6238421;22;20016;-87
2022/03/27 08:22:56;;;;;;;50.90;7.80;;;;;;;;;;6237332;22;20495;-85
2022/03/27 08:28:08;;;;;;;37.42;7.45;;;;;;;;;;6235543;22;20468;-85
2022/03/27 08:30:37;;;;;;;36.97;6.45;;;;;;;;;;6240128;22;20094;-86
2022/03/27 08:33:04;;;;;;;43.50;7.60;;;;;;;;;;6264918;22;20027;-86
2022/03/27 08:35:30;;;;;;;47.08;8.05;;;;;;;;;;6267330;22;20012;-86
2022/03/27 08:37:56;;;;;;;38.28;7.00;;;;;;;;;;6242309;22;20027;-86
2022/03/27 08:40:22;;;;;;;42.72;8.05;;;;;;;;;;6270538;22;20070;-85
2022/03/27 08:42:52;;;;;;;42.38;7.30;;;;;;;;;;6267957;22;20016;-85
2022/03/27 08:45:18;;;;;;;52.70;8.07;;;;;;;;;;6239895;22;20035;-86
2022/03/27 08:47:45;;;;;;;45.47;7.30;;;;;;;;;;6240435;22;20106;-84
2022/03/27 08:50:37;;;;;;;50.45;8.32;;;;;;;;;;6262532;22;20424;-86
2022/03/27 08:53:11;;;;;;;48.72;8.15;;;;;;;;;;6269078;22;20020;-83
2022/03/27 08:55:48;;;;;;;39.33;6.88;;;;;;;;;;6253360;22;20536;-86
2022/03/27 08:58:14;;;;;;;41.90;7.88;;;;;;;;;;6278098;22;20050;-84
2022/03/27 09:04:11;;;;;;;35.22;6.40;;;;;;;;;;6139650;23;20420;-86
2022/03/27 09:06:37;;;;;;;40.40;6.75;;;;;;;;;;6117692;23;20053;-85
2022/03/27 09:09:06;;;;;;;39.53;7.30;;;;;;;;;;6220021;22;20099;-86
2022/03/27 09:11:35;;;;;;;46.40;7.18;;;;;;;;;;6211804;22;20126;-86
2022/03/27 09:14:20;;;;;;;35.80;7.13;;;;;;;;;;6190668;23;20032;-84
2022/03/27 09:17:06;;;;;;;39.33;7.63;;;;;;;;;;6206352;23;20335;-85
2022/03/27 09:19:44;;;;;;;44.28;7.18;;;;;;;;;;6206424;23;20021;-86
2022/03/27 09:22:15;;;;;;;48.08;7.80;;;;;;;;;;6176843;23;20036;-87
2022/03/27 09:24:42;;;;;;;38.28;6.97;;;;;;;;;;6203610;23;20342;-85
2022/03/27 09:27:08;;;;;;;42.58;7.40;;;;;;;;;;6178902;23;20207;-85
2022/03/27 09:29:54;;;;;;;54.17;8.27;;;;;;;;;;6175724;23;20450;-85
2022/03/27 09:32:46;;;;;;;43.05;7.45;;;;;;;;;;6204661;23;20012;-85
2022/03/27 09:35:13;;;;;;;41.72;8.20;;;;;;;;;;6173661;23;20515;-85
2022/03/27 09:37:41;;;;;;;32.92;5.22;;;;;;;;;;6207525;23;20103;-84
2022/03/27 09:40:08;;;;;;;43.47;6.50;;;;;;;;;;6205883;23;20091;-84
2022/03/27 09:43:11;;;;;;;50.50;7.55;;;;;;;;;;6179711;23;20499;-86
2022/03/27 09:45:37;;;;;;;44.17;6.50;;;;;;;;;;6205264;23;20062;-86
2022/03/27 09:48:08;;;;;;;42.97;7.03;;;;;;;;;;6207019;23;20021;-86
2022/03/27 09:50:35;;;;;;;35.42;6.90;;;;;;;;;;6155913;23;20020;-85
2022/03/27 09:53:23;;;;;;;41.83;7.22;;;;;;;;;;6152404;23;20040;-85
2022/03/27 09:55:59;;;;;;;39.45;7.95;;;;;;;;;;6157159;23;20020;-85
2022/03/27 09:58:37;;;;;;;43.42;7.00;;;;;;;;;;6204761;23;20099;-86
2022/03/27 10:01:13;;;;;;;33.60;6.78;;;;;;;;;;6181037;23;20059;-86
2022/03/27 10:03:59;;;;;;;37.28;5.57;;;;;;;;;;6114843;23;20018;-87
2022/03/27 10:06:33;;;;;;;36.13;6.47;;;;;;;;;;6115782;23;20021;-85
2022/03/27 10:09:01;;;;;;;36.90;6.50;;;;;;;;;;6116869;23;20041;-83
2022/03/27 10:11:46;;;;;;;38.20;6.35;;;;;;;;;;6091079;23;20022;-85
2022/03/27 10:14:15;;;;;;;37.28;6.18;;;;;;;;;;6114888;23;20081;-85
2022/03/27 10:17:13;;;;;;;40.40;7.05;;;;;;;;;;6089417;23;20482;-86
2022/03/27 10:20:05;;;;;;;31.27;5.63;;;;;;;;;;6109598;23;20556;-85
2022/03/27 10:22:32;;;;;;;30.67;5.90;;;;;;;;;;6113193;23;21091;-84
2022/03/27 10:25:04;;;;;;;39.92;7.03;;;;;;;;;;6090264;23;20449;-84
2022/03/27 10:27:32;;;;;;;36.70;5.90;;;;;;;;;;6092177;23;20034;-86
2022/03/27 10:29:59;;;;;;;30.02;5.93;;;;;;;;;;6091084;23;20049;-86
2022/03/27 10:32:25;;;;;;;39.03;5.85;;;;;;;;;;6122629;23;20074;-87
2022/03/27 10:35:09;;;;;;;30.38;5.18;;;;;;;;;;6142601;23;20473;-86
2022/03/27 10:37:53;;;;;;;38.17;5.57;;;;;;;;;;6145557;23;20021;-86
2022/03/27 10:40:24;;;;;;;33.53;5.20;;;;;;;;;;6151390;23;20024;-85
2022/03/27 10:42:58;;;;;;;28.05;5.80;;;;;;;;;;6205995;23;20465;-86
2022/03/27 10:45:24;;;;;;;33.17;5.68;;;;;;;;;;6202797;23;20023;-86
2022/03/27 10:48:08;;;;;;;30.33;6.03;;;;;;;;;;6204985;23;20095;-85
2022/03/27 10:50:56;;;;;;;30.48;5.22;;;;;;;;;;6206711;23;20020;-86
2022/03/27 10:53:23;;;;;;;29.30;5.47;;;;;;;;;;6177547;23;20039;-85
2022/03/27 10:55:53;;;;;;;26.23;5.72;;;;;;;;;;6203922;23;20043;-86
2022/03/27 11:01:30;;;;;;;36.38;6.35;;;;;;;;;;6205841;23;20017;-86
2022/03/27 11:04:07;;;;;;;30.27;5.93;;;;;;;;;;6203811;23;20020;-86
2022/03/27 11:06:34;;;;;;;30.33;5.45;;;;;;;;;;6179381;23;20024;-86
2022/03/27 11:09:02;;;;;;;35.35;6.18;;;;;;;;;;6206407;23;20103;-86
2022/03/27 11:11:34;;;;;;;38.53;5.88;;;;;;;;;;6205724;23;20043;-87
2022/03/27 11:14:21;;;;;;;36.08;6.35;;;;;;;;;;6205313;23;20028;-86
2022/03/27 11:17:06;;;;;;;38.38;6.35;;;;;;;;;;6204384;23;20024;-86
2022/03/27 11:19:51;;;;;;;40.75;6.95;;;;;;;;;;6157664;23;20365;-86
2022/03/27 11:22:36;;;;;;;32.17;6.20;;;;;;;;;;6152601;23;20839;-87
2022/03/27 11:25:21;;;;;;;41.38;7.15;;;;;;;;;;6179517;23;20107;-86
2022/03/27 11:28:17;;;;;;;;;;;;;;;;;;;;;
2022/03/27 11:30:56;;;;;;;31.08;6.93;;;;;;;;;;6204231;23;20021;-86
2022/03/27 11:33:26;;;;;;;36.42;6.57;;;;;;;;;;6207301;23;20024;-87
2022/03/27 11:36:23;;;;;;;25.90;5.57;;;;;;;;;;6176703;23;20027;-85
2022/03/27 11:45:07;;;;;;;26.27;5.50;;;;;;;;;;6268698;22;20780;-86
2022/03/27 11:47:36;;;;;;;32.58;5.57;;;;;;;;;;6239411;22;20099;-84
2022/03/27 11:50:03;;;;;;;25.95;5.45;;;;;;;;;;6266867;22;20019;-86
2022/03/27 11:52:29;;;;;;;33.75;5.63;;;;;;;;;;6263286;22;20020;-86
2022/03/27 11:55:05;;;;;;;26.90;5.78;;;;;;;;;;6267843;22;20076;-84
2022/03/27 11:57:44;;;;;;;27.27;6.25;;;;;;;;;;6265905;22;20127;-86
2022/03/27 12:00:11;;;;;;;21.98;4.22;;;;;;;;;;6267547;22;20024;-85
2022/03/27 12:02:44;;;;;;;21.90;4.80;;;;;;;;;;6268301;22;20122;-84
2022/03/27 12:05:11;;;;;;;27.25;4.80;;;;;;;;;;6273860;22;20019;-87
2022/03/27 12:07:55;;;;;;;23.88;5.80;;;;;;;;;;6280180;22;20020;-86
2022/03/27 12:10:21;;;;;;;;;;;;;;;;;;6274663;22;20023;-83
2022/03/27 12:13:08;;;;;;;24.33;5.22;;;;;;;;;;6270155;22;19980;-85
2022/03/27 12:18:47;;;;;;;28.85;5.40;;;;;;;;;;6237191;22;20114;-85
2022/03/27 12:21:14;;;;;;;27.85;6.03;;;;;;;;;;6264222;22;20060;-87
2022/03/27 12:23:47;;;;;;;27.13;5.85;;;;;;;;;;6266726;22;20007;-85
2022/03/27 12:31:56;;;;;;;25.48;5.47;;;;;;;;;;6269150;22;20084;-86
2022/03/27 12:34:23;;;;;;;19.42;4.55;;;;;;;;;;6268809;22;20114;-85
2022/03/27 12:37:16;;;;;;;15.40;3.47;;;;;;;;;;6268100;22;20363;-87
2022/03/27 12:39:48;;;;;;;24.52;4.55;;;;;;;;;;6270888;22;20020;-85
2022/03/27 12:42:35;;;;;;;22.73;4.30;;;;;;;;;;6271615;22;20031;-87
2022/03/27 12:45:10;;;;;;;23.67;5.03;;;;;;;;;;6268046;22;20027;-87
2022/03/27 12:47:36;;;;;;;24.52;4.57;;;;;;;;;;6268800;22;20079;-88
2022/03/27 12:50:03;;;;;;;31.02;5.47;;;;;;;;;;6283487;22;20038;-83
2022/03/27 12:52:29;;;;;;;27.92;5.03;;;;;;;;;;6284756;22;20012;-86
2022/03/27 12:54:55;;;;;;;22.33;4.35;;;;;;;;;;6288177;22;20023;-84
2022/03/27 12:57:21;;;;;;;23.67;5.20;;;;;;;;;;6251128;22;20459;-87
2022/03/27 12:59:47;;;;;;;19.67;4.05;;;;;;;;;;6265698;22;20024;-88
2022/03/27 13:02:25;;;;;;;27.70;5.47;;;;;;;;;;6268766;22;20323;-86
2022/03/27 13:04:58;;;;;;;24.50;5.03;;;;;;;;;;6238733;22;20023;-88
2022/03/27 13:07:43;;;;;;;22.70;4.22;;;;;;;;;;6237143;22;20024;-86
2022/03/27 13:10:10;;;;;;;23.38;4.95;;;;;;;;;;6239313;22;20348;-87
2022/03/27 13:12:36;;;;;;;31.40;5.00;;;;;;;;;;6213960;22;20035;-86
2022/03/27 13:15:03;;;;;;;25.90;5.45;;;;;;;;;;6273346;22;20016;-85
2022/03/27 13:17:29;;;;;;;30.10;6.63;;;;;;;;;;6247110;22;20020;-85
2022/03/27 13:19:55;;;;;;;25.52;4.80;;;;;;;;;;6239714;22;20497;-85
2022/03/27 13:22:21;;;;;;;27.83;5.68;;;;;;;;;;6264747;22;20019;-87
2022/03/27 13:24:51;;;;;;;24.10;4.97;;;;;;;;;;6266013;22;20456;-87
2022/03/27 13:27:17;;;;;;;29.45;4.90;;;;;;;;;;6239005;22;20495;-87
2022/03/27 13:29:43;;;;;;;20.65;4.60;;;;;;;;;;6187952;22;20202;-86
2022/03/27 13:32:09;;;;;;;22.27;4.68;;;;;;;;;;6213725;22;20019;-88
2022/03/27 13:34:39;;;;;;;27.05;4.25;;;;;;;;;;6240307;22;20717;-86
2022/03/27 13:37:11;;;;;;;24.05;4.85;;;;;;;;;;6242026;22;21107;-87
2022/03/27 13:39:37;;;;;;;21.88;4.88;;;;;;;;;;6267249;22;20020;-86
2022/03/27 13:44:48;;;;;;;20.73;4.85;;;;;;;;;;6268160;22;20399;-86
2022/03/27 13:47:15;;;;;;;25.88;6.05;;;;;;;;;;6274121;22;20027;-86
2022/03/27 13:49:41;;;;;;;35.90;5.70;;;;;;;;;;6280971;22;20016;-86
2022/03/27 13:52:08;;;;;;;24.67;5.55;;;;;;;;;;6250355;22;20031;-84
2022/03/27 13:54:34;;;;;;;30.02;5.75;;;;;;;;;;6271982;22;20023;-85
2022/03/27 13:57:00;;;;;;;32.97;4.93;;;;;;;;;;6266894;22;20039;-85
2022/03/27 13:59:26;;;;;;;32.50;5.57;;;;;;;;;;6215961;22;20023;-87
2022/03/27 14:01:53;;;;;;;30.05;5.88;;;;;;;;;;6268452;22;20099;-87
2022/03/27 14:04:20;;;;;;;20.98;4.70;;;;;;;;;;6266175;22;20019;-84
2022/03/27 14:06:46;;;;;;;22.88;4.85;;;;;;;;;;6265853;22;20073;-86
2022/03/27 14:09:13;;;;;;;24.27;4.07;;;;;;;;;;6268133;22;20027;-84
2022/03/27 14:11:41;;;;;;;21.88;4.93;;;;;;;;;;6266256;22;20019;-84
2022/03/27 14:14:20;;;;;;;18.70;4.30;;;;;;;;;;6215074;22;20022;-83
2022/03/27 14:16:46;;;;;;;27.40;5.63;;;;;;;;;;6267869;22;20024;-84
2022/03/27 14:19:13;;;;;;;22.40;4.55;;;;;;;;;;6269375;22;20192;-83
2022/03/27 14:21:45;;;;;;;24.58;4.40;;;;;;;;;;6220778;22;20026;-87
2022/03/27 14:24:11;;;;;;;27.60;5.60;;;;;;;;;;6271473;22;20022;-84
2022/03/27 14:26:37;;;;;;;20.10;4.18;;;;;;;;;;6252678;22;20089;-86
2022/03/27 14:29:04;;;;;;;27.20;5.75;;;;;;;;;;6277548;22;20393;-85
2022/03/27 14:31:30;;;;;;;27.52;4.22;;;;;;;;;;6271363;22;20487;-85
2022/03/27 14:33:56;;;;;;;28.15;5.93;;;;;;;;;;6241299;22;20016;-85
2022/03/27 14:36:22;;;;;;;22.88;4.20;;;;;;;;;;6269268;22;20058;-85
2022/03/27 14:38:48;;;;;;;23.05;4.90;;;;;;;;;;6240336;22;20031;-83
2022/03/27 14:41:15;;;;;;;22.63;5.22;;;;;;;;;;6267723;22;20027;-84
2022/03/27 14:43:45;;;;;;;28.95;5.53;;;;;;;;;;6267271;22;20809;-83
2022/03/27 14:46:13;;;;;;;20.25;4.32;;;;;;;;;;6269354;22;20027;-84
2022/03/27 14:48:48;;;;;;;23.73;5.25;;;;;;;;;;6246320;22;20027;-82
2022/03/27 14:51:23;;;;;;;27.65;5.10;;;;;;;;;;6266626;22;20585;-83
2022/03/27 14:56:53;;;;;;;26.13;4.47;;;;;;;;;;6274058;22;20161;-83
2022/03/27 14:59:21;;;;;;;26.13;5.63;;;;;;;;;;6265803;22;20019;-85
2022/03/27 15:01:49;;;;;;;33.08;6.07;;;;;;;;;;6266467;22;20089;-83
2022/03/27 15:04:15;;;;;;;29.42;5.72;;;;;;;;;;6239495;22;20466;-86
2022/03/27 15:06:41;;;;;;;24.13;5.35;;;;;;;;;;6265394;22;20023;-86
2022/03/27 15:09:07;;;;;;;28.83;4.88;;;;;;;;;;6240395;22;20466;-84
2022/03/27 15:11:34;;;;;;;24.65;4.38;;;;;;;;;;6265397;22;20019;-84
2022/03/27 15:14:04;;;;;;;25.05;5.05;;;;;;;;;;6266642;22;20019;-83
2022/03/27 15:16:30;;;;;;;25.95;5.15;;;;;;;;;;6267154;22;20023;-84
2022/03/27 15:18:57;;;;;;;24.63;5.60;;;;;;;;;;6267074;22;20580;-88
2022/03/27 15:21:23;;;;;;;34.20;6.35;;;;;;;;;;6268604;22;20023;-86
2022/03/27 15:23:51;;;;;;;24.77;5.28;;;;;;;;;;6215648;22;20114;-87
2022/03/27 15:26:17;;;;;;;24.08;4.63;;;;;;;;;;6268712;22;20028;-86
2022/03/27 15:28:43;;;;;;;23.90;5.40;;;;;;;;;;6240872;22;20710;-88
2022/03/27 15:31:12;;;;;;;30.30;6.57;;;;;;;;;;6267347;22;20456;-84
2022/03/27 15:33:44;;;;;;;28.30;4.22;;;;;;;;;;6266293;22;20016;-88
2022/03/27 15:36:10;;;;;;;36.05;6.40;;;;;;;;;;6242299;22;20016;-88
2022/03/27 15:38:36;;;;;;;31.67;6.28;;;;;;;;;;6265436;22;20023;-83
2022/03/27 15:41:04;;;;;;;31.88;5.55;;;;;;;;;;6269429;22;20038;-83
2022/03/27 15:43:35;;;;;;;25.73;5.22;;;;;;;;;;6268152;22;20443;-85
2022/03/27 15:46:01;;;;;;;33.13;5.80;;;;;;;;;;6239307;22;20015;-83
2022/03/27 15:48:27;;;;;;;36.03;6.55;;;;;;;;;;6264348;22;20074;-86